Current Conditions
Overcast
Conditions



Pressure
29.78 (inHG) - 1008.42 (mb)
Visibility

10.0 (miles) - 16.1 (km)
Temperature
41  °F
Temperature
34  °F
Dewpoint
76  %
 Humidity
Wind Speed
20  mph
17  kts
32  km/h
8.9  m/s
Wind Direction
N
45°
E
90°
135°
S
180°
225°
W
270°
315°
 240°

West South
West
Airport Data
KPCW
Carl R Keller Field
Metar :KPCW 191255Z AUTO 24017G23KT 10SM OVC028 05/01 A2978 RMK AO2
Wed 19th January 08:55 am
Raw Metar Info
Raw METAR is the most common format in the world for the transmission of observational weather data. It is highly standardized through the International Civil Aviation Organization (ICAO), which allows it to be understood throughout most of the world.
API Info
Data Provided by
https://www.checkwx.com/weather/KPCW

Aviation Weather providing METAR, TAF, AIRMET, SIGMET and OUTLOOK Weather Reports
© Info
CSS/SVG/PHP scripts were developed by weather34.com for use in the weather34 template © 2015-2022

Guide Info provided by Metar-Wikipedia